sensor_id;sensor_type;location;lat;lon;timestamp;temperature;humidity
44277;DHT22;29973;43.742;1.236;2023-04-02T00:00:25;6.10;99.90
44277;DHT22;29973;43.742;1.236;2023-04-02T00:08:20;6.30;99.90
44277;DHT22;29973;43.742;1.236;2023-04-02T00:13:33;6.30;99.90
44277;DHT22;29973;43.742;1.236;2023-04-02T00:16:00;6.40;99.90
44277;DHT22;29973;43.742;1.236;2023-04-02T00:18:28;6.30;99.90
44277;DHT22;29973;43.742;1.236;2023-04-02T00:21:07;6.30;99.90
44277;DHT22;29973;43.742;1.236;2023-04-02T00:23:37;6.20;99.90
44277;DHT22;29973;43.742;1.236;2023-04-02T00:26:19;6.10;99.90
44277;DHT22;29973;43.742;1.236;2023-04-02T00:28:46;6.20;99.90
44277;DHT22;29973;43.742;1.236;2023-04-02T00:31:11;6.00;99.90
44277;DHT22;29973;43.742;1.236;2023-04-02T00:33:37;6.10;99.90
44277;DHT22;29973;43.742;1.236;2023-04-02T00:36:07;6.10;99.90
44277;DHT22;29973;43.742;1.236;2023-04-02T00:38:33;6.10;99.90
44277;DHT22;29973;43.742;1.236;2023-04-02T00:41:05;6.20;99.90
44277;DHT22;29973;43.742;1.236;2023-04-02T00:43:35;6.20;99.90
44277;DHT22;29973;43.742;1.236;2023-04-02T00:46:04;6.00;99.90
44277;DHT22;29973;43.742;1.236;2023-04-02T00:48:36;6.10;99.90
44277;DHT22;29973;43.742;1.236;2023-04-02T00:51:31;6.10;99.90
44277;DHT22;29973;43.742;1.236;2023-04-02T00:54:01;6.10;99.90
44277;DHT22;29973;43.742;1.236;2023-04-02T00:56:32;6.00;99.90
44277;DHT22;29973;43.742;1.236;2023-04-02T00:58:59;5.90;99.90
44277;DHT22;29973;43.742;1.236;2023-04-02T01:01:28;5.90;99.90
44277;DHT22;29973;43.742;1.236;2023-04-02T01:03:59;5.90;99.90
44277;DHT22;29973;43.742;1.236;2023-04-02T01:06:32;5.90;99.90
44277;DHT22;29973;43.742;1.236;2023-04-02T01:09:24;5.90;99.90
44277;DHT22;29973;43.742;1.236;2023-04-02T01:25:30;6.20;99.90
44277;DHT22;29973;43.742;1.236;2023-04-02T01:31:01;6.20;99.90
44277;DHT22;29973;43.742;1.236;2023-04-02T01:33:32;6.10;99.90
44277;DHT22;29973;43.742;1.236;2023-04-02T01:39:05;6.40;99.90
44277;DHT22;29973;43.742;1.236;2023-04-02T01:41:48;6.40;99.90
44277;DHT22;29973;43.742;1.236;2023-04-02T01:44:40;6.40;99.90
44277;DHT22;29973;43.742;1.236;2023-04-02T01:47:11;6.30;99.90
44277;DHT22;29973;43.742;1.236;2023-04-02T01:49:38;6.30;99.90
44277;DHT22;29973;43.742;1.236;2023-04-02T01:52:05;6.20;99.90
44277;DHT22;29973;43.742;1.236;2023-04-02T01:54:32;6.10;99.90
44277;DHT22;29973;43.742;1.236;2023-04-02T01:56:58;6.10;99.90
44277;DHT22;29973;43.742;1.236;2023-04-02T01:59:24;6.20;99.90
44277;DHT22;29973;43.742;1.236;2023-04-02T02:02:00;6.00;99.90
44277;DHT22;29973;43.742;1.236;2023-04-02T02:04:26;6.10;99.90
44277;DHT22;29973;43.742;1.236;2023-04-02T02:06:52;6.00;99.90
44277;DHT22;29973;43.742;1.236;2023-04-02T02:09:24;6.00;99.90
44277;DHT22;29973;43.742;1.236;2023-04-02T02:11:51;5.90;99.90
44277;DHT22;29973;43.742;1.236;2023-04-02T02:14:27;5.90;99.90
44277;DHT22;29973;43.742;1.236;2023-04-02T02:16:55;6.00;99.90
44277;DHT22;29973;43.742;1.236;2023-04-02T02:19:33;6.00;99.90
44277;DHT22;29973;43.742;1.236;2023-04-02T02:24:39;6.00;99.90
44277;DHT22;29973;43.742;1.236;2023-04-02T02:30:37;6.00;99.90
44277;DHT22;29973;43.742;1.236;2023-04-02T02:32:44;6.00;99.90
44277;DHT22;29973;43.742;1.236;2023-04-02T02:35:21;6.10;99.90
44277;DHT22;29973;43.742;1.236;2023-04-02T02:40:59;6.10;99.90
44277;DHT22;29973;43.742;1.236;2023-04-02T02:43:26;6.20;99.90
44277;DHT22;29973;43.742;1.236;2023-04-02T02:45:54;6.30;99.90
44277;DHT22;29973;43.742;1.236;2023-04-02T02:48:29;6.30;99.90
44277;DHT22;29973;43.742;1.236;2023-04-02T02:50:57;6.30;99.90
44277;DHT22;29973;43.742;1.236;2023-04-02T02:53:24;6.40;99.90
44277;DHT22;29973;43.742;1.236;2023-04-02T02:55:56;6.30;99.90
44277;DHT22;29973;43.742;1.236;2023-04-02T02:58:27;6.30;99.90
44277;DHT22;29973;43.742;1.236;2023-04-02T03:00:55;6.30;99.90
44277;DHT22;29973;43.742;1.236;2023-04-02T03:03:26;6.30;99.90
44277;DHT22;29973;43.742;1.236;2023-04-02T03:05:56;6.40;99.90
44277;DHT22;29973;43.742;1.236;2023-04-02T03:08:31;6.50;99.90
44277;DHT22;29973;43.742;1.236;2023-04-02T03:13:32;6.40;99.90
44277;DHT22;29973;43.742;1.236;2023-04-02T03:16:32;6.60;99.90
44277;DHT22;29973;43.742;1.236;2023-04-02T03:19:16;6.40;99.90
44277;DHT22;29973;43.742;1.236;2023-04-02T03:22:20;6.60;99.90
44277;DHT22;29973;43.742;1.236;2023-04-02T03:24:48;6.50;99.90
44277;DHT22;29973;43.742;1.236;2023-04-02T03:27:24;6.60;99.90
44277;DHT22;29973;43.742;1.236;2023-04-02T03:30:06;6.50;99.90
44277;DHT22;29973;43.742;1.236;2023-04-02T03:32:41;6.60;99.90
44277;DHT22;29973;43.742;1.236;2023-04-02T03:35:20;6.50;99.90
44277;DHT22;29973;43.742;1.236;2023-04-02T03:38:21;6.50;99.90
44277;DHT22;29973;43.742;1.236;2023-04-02T03:41:06;6.40;99.90
44277;DHT22;29973;43.742;1.236;2023-04-02T03:43:39;6.30;99.90
44277;DHT22;29973;43.742;1.236;2023-04-02T03:48:45;6.40;99.90
44277;DHT22;29973;43.742;1.236;2023-04-02T03:51:15;6.40;99.90
44277;DHT22;29973;43.742;1.236;2023-04-02T03:53:43;6.40;99.90
44277;DHT22;29973;43.742;1.236;2023-04-02T03:56:24;6.40;99.90
44277;DHT22;29973;43.742;1.236;2023-04-02T03:59:03;6.50;99.90
44277;DHT22;29973;43.742;1.236;2023-04-02T04:01:36;6.70;99.90
44277;DHT22;29973;43.742;1.236;2023-04-02T04:04:10;6.90;99.90
44277;DHT22;29973;43.742;1.236;2023-04-02T04:06:41;6.90;99.90
44277;DHT22;29973;43.742;1.236;2023-04-02T04:09:10;7.00;99.90
44277;DHT22;29973;43.742;1.236;2023-04-02T04:11:43;6.90;99.90
44277;DHT22;29973;43.742;1.236;2023-04-02T04:14:36;7.00;99.90
44277;DHT22;29973;43.742;1.236;2023-04-02T04:19:51;7.20;99.90
44277;DHT22;29973;43.742;1.236;2023-04-02T04:22:23;7.10;99.90
44277;DHT22;29973;43.742;1.236;2023-04-02T04:25:02;7.30;99.90
44277;DHT22;29973;43.742;1.236;2023-04-02T04:27:38;7.40;99.90
44277;DHT22;29973;43.742;1.236;2023-04-02T04:30:14;7.40;99.90
44277;DHT22;29973;43.742;1.236;2023-04-02T04:33:12;7.30;99.90
44277;DHT22;29973;43.742;1.236;2023-04-02T04:36:00;7.40;99.90
44277;DHT22;29973;43.742;1.236;2023-04-02T04:38:37;7.30;99.90
44277;DHT22;29973;43.742;1.236;2023-04-02T04:41:10;7.40;99.90
44277;DHT22;29973;43.742;1.236;2023-04-02T04:44:13;7.40;99.90
44277;DHT22;29973;43.742;1.236;2023-04-02T04:46:41;7.50;99.90
44277;DHT22;29973;43.742;1.236;2023-04-02T04:49:58;7.40;99.90
44277;DHT22;29973;43.742;1.236;2023-04-02T04:52:20;7.30;99.90
44277;DHT22;29973;43.742;1.236;2023-04-02T04:54:48;7.20;99.90
44277;DHT22;29973;43.742;1.236;2023-04-02T04:57:36;7.40;99.90
44277;DHT22;29973;43.742;1.236;2023-04-02T05:00:12;7.30;99.90
44277;DHT22;29973;43.742;1.236;2023-04-02T05:05:46;7.30;99.90
44277;DHT22;29973;43.742;1.236;2023-04-02T05:08:31;7.40;99.90
44277;DHT22;29973;43.742;1.236;2023-04-02T05:11:00;7.30;99.90
44277;DHT22;29973;43.742;1.236;2023-04-02T05:17:02;7.40;99.90
44277;DHT22;29973;43.742;1.236;2023-04-02T05:19:18;7.30;99.90
44277;DHT22;29973;43.742;1.236;2023-04-02T05:21:53;7.10;99.90
44277;DHT22;29973;43.742;1.236;2023-04-02T05:27:30;7.10;99.90
44277;DHT22;29973;43.742;1.236;2023-04-02T05:32:33;7.50;99.90
44277;DHT22;29973;43.742;1.236;2023-04-02T05:35:00;7.50;99.90
44277;DHT22;29973;43.742;1.236;2023-04-02T05:37:30;7.50;99.90
44277;DHT22;29973;43.742;1.236;2023-04-02T05:40:04;7.50;99.90
44277;DHT22;29973;43.742;1.236;2023-04-02T05:42:39;7.60;99.90
44277;DHT22;29973;43.742;1.236;2023-04-02T05:47:39;7.60;99.90
44277;DHT22;29973;43.742;1.236;2023-04-02T05:52:38;7.70;99.90
44277;DHT22;29973;43.742;1.236;2023-04-02T05:57:43;7.80;99.90
44277;DHT22;29973;43.742;1.236;2023-04-02T06:03:01;7.80;99.90
44277;DHT22;29973;43.742;1.236;2023-04-02T06:05:39;7.80;99.90
44277;DHT22;29973;43.742;1.236;2023-04-02T06:08:31;7.90;99.90
44277;DHT22;29973;43.742;1.236;2023-04-02T06:13:30;7.90;99.90
44277;DHT22;29973;43.742;1.236;2023-04-02T06:15:55;8.00;99.90
44277;DHT22;29973;43.742;1.236;2023-04-02T06:18:27;8.00;99.90
44277;DHT22;29973;43.742;1.236;2023-04-02T06:20:53;8.10;99.90
44277;DHT22;29973;43.742;1.236;2023-04-02T06:28:47;8.20;99.90
44277;DHT22;29973;43.742;1.236;2023-04-02T06:33:45;8.40;99.90
44277;DHT22;29973;43.742;1.236;2023-04-02T06:36:11;8.50;99.90
44277;DHT22;29973;43.742;1.236;2023-04-02T06:38:37;8.40;99.90
44277;DHT22;29973;43.742;1.236;2023-04-02T06:41:15;8.40;99.90
44277;DHT22;29973;43.742;1.236;2023-04-02T06:43:49;8.40;99.90
44277;DHT22;29973;43.742;1.236;2023-04-02T06:46:31;8.40;99.90
44277;DHT22;29973;43.742;1.236;2023-04-02T06:49:09;8.50;99.90
44277;DHT22;29973;43.742;1.236;2023-04-02T06:51:38;8.60;99.90
44277;DHT22;29973;43.742;1.236;2023-04-02T06:54:06;8.70;99.90
44277;DHT22;29973;43.742;1.236;2023-04-02T06:56:42;8.90;99.90
44277;DHT22;29973;43.742;1.236;2023-04-02T06:59:08;8.90;99.90
44277;DHT22;29973;43.742;1.236;2023-04-02T07:02:01;8.80;99.90
44277;DHT22;29973;43.742;1.236;2023-04-02T07:04:29;8.80;99.90
44277;DHT22;29973;43.742;1.236;2023-04-02T07:06:54;8.90;99.90
44277;DHT22;29973;43.742;1.236;2023-04-02T07:09:21;8.80;99.90
44277;DHT22;29973;43.742;1.236;2023-04-02T07:11:47;8.80;99.90
44277;DHT22;29973;43.742;1.236;2023-04-02T07:14:13;8.90;99.90
44277;DHT22;29973;43.742;1.236;2023-04-02T07:16:40;9.00;99.90
44277;DHT22;29973;43.742;1.236;2023-04-02T07:19:08;9.00;99.90
44277;DHT22;29973;43.742;1.236;2023-04-02T07:21:39;9.10;99.90
44277;DHT22;29973;43.742;1.236;2023-04-02T07:24:05;9.20;99.90
44277;DHT22;29973;43.742;1.236;2023-04-02T07:26:31;9.10;99.90
44277;DHT22;29973;43.742;1.236;2023-04-02T07:28:57;9.10;99.90
44277;DHT22;29973;43.742;1.236;2023-04-02T07:31:25;9.00;99.90
44277;DHT22;29973;43.742;1.236;2023-04-02T07:33:53;9.00;99.90
44277;DHT22;29973;43.742;1.236;2023-04-02T07:36:21;9.10;99.90
44277;DHT22;29973;43.742;1.236;2023-04-02T07:38:48;9.20;99.90
44277;DHT22;29973;43.742;1.236;2023-04-02T07:41:14;9.30;99.90
44277;DHT22;29973;43.742;1.236;2023-04-02T07:43:41;9.20;99.90
44277;DHT22;29973;43.742;1.236;2023-04-02T07:46:08;9.20;99.90
44277;DHT22;29973;43.742;1.236;2023-04-02T07:48:34;9.30;99.90
44277;DHT22;29973;43.742;1.236;2023-04-02T07:50:59;9.30;99.90
44277;DHT22;29973;43.742;1.236;2023-04-02T07:53:35;9.50;99.90
44277;DHT22;29973;43.742;1.236;2023-04-02T07:56:03;9.60;99.90
44277;DHT22;29973;43.742;1.236;2023-04-02T07:58:31;9.60;99.90
44277;DHT22;29973;43.742;1.236;2023-04-02T08:00:57;9.70;99.90
44277;DHT22;29973;43.742;1.236;2023-04-02T08:03:23;10.00;99.90
44277;DHT22;29973;43.742;1.236;2023-04-02T08:05:54;10.10;99.90
44277;DHT22;29973;43.742;1.236;2023-04-02T08:08:21;10.10;99.90
44277;DHT22;29973;43.742;1.236;2023-04-02T08:10:48;10.20;99.90
44277;DHT22;29973;43.742;1.236;2023-04-02T08:13:14;10.30;99.90
44277;DHT22;29973;43.742;1.236;2023-04-02T08:15:41;10.20;99.90
44277;DHT22;29973;43.742;1.236;2023-04-02T08:18:07;10.70;99.90
44277;DHT22;29973;43.742;1.236;2023-04-02T08:20:32;11.00;99.90
44277;DHT22;29973;43.742;1.236;2023-04-02T08:22:58;10.90;99.90
44277;DHT22;29973;43.742;1.236;2023-04-02T08:25:26;11.00;99.90
44277;DHT22;29973;43.742;1.236;2023-04-02T08:27:52;11.20;99.90
44277;DHT22;29973;43.742;1.236;2023-04-02T08:30:18;11.50;99.90
44277;DHT22;29973;43.742;1.236;2023-04-02T08:32:44;11.60;99.90
44277;DHT22;29973;43.742;1.236;2023-04-02T08:35:11;11.70;99.90
44277;DHT22;29973;43.742;1.236;2023-04-02T08:37:39;11.90;99.90
44277;DHT22;29973;43.742;1.236;2023-04-02T08:40:06;11.50;99.90
44277;DHT22;29973;43.742;1.236;2023-04-02T08:45:28;11.30;99.90
44277;DHT22;29973;43.742;1.236;2023-04-02T08:47:58;11.00;99.90
44277;DHT22;29973;43.742;1.236;2023-04-02T08:50:37;10.60;99.90
44277;DHT22;29973;43.742;1.236;2023-04-02T08:53:06;10.50;99.90
44277;DHT22;29973;43.742;1.236;2023-04-02T09:01:01;10.00;99.90
44277;DHT22;29973;43.742;1.236;2023-04-02T09:03:45;9.80;99.90
44277;DHT22;29973;43.742;1.236;2023-04-02T09:06:15;9.70;99.90
44277;DHT22;29973;43.742;1.236;2023-04-02T09:08:44;10.00;99.90
44277;DHT22;29973;43.742;1.236;2023-04-02T09:13:50;10.60;99.90
44277;DHT22;29973;43.742;1.236;2023-04-02T09:16:19;11.10;99.90
44277;DHT22;29973;43.742;1.236;2023-04-02T09:18:50;11.80;99.90
44277;DHT22;29973;43.742;1.236;2023-04-02T09:23:47;12.10;99.90
44277;DHT22;29973;43.742;1.236;2023-04-02T09:26:31;11.90;99.90
44277;DHT22;29973;43.742;1.236;2023-04-02T09:29:25;12.20;99.90
44277;DHT22;29973;43.742;1.236;2023-04-02T09:32:06;12.90;99.90
44277;DHT22;29973;43.742;1.236;2023-04-02T09:34:35;13.00;99.90
44277;DHT22;29973;43.742;1.236;2023-04-02T09:37:19;12.60;99.90
44277;DHT22;29973;43.742;1.236;2023-04-02T09:39:47;12.00;99.90
44277;DHT22;29973;43.742;1.236;2023-04-02T09:42:29;12.40;99.90
44277;DHT22;29973;43.742;1.236;2023-04-02T09:45:31;12.30;99.90
44277;DHT22;29973;43.742;1.236;2023-04-02T09:47:57;12.10;99.90
44277;DHT22;29973;43.742;1.236;2023-04-02T09:50:30;12.50;99.90
44277;DHT22;29973;43.742;1.236;2023-04-02T09:52:56;12.40;99.90
44277;DHT22;29973;43.742;1.236;2023-04-02T09:55:27;11.30;99.90
44277;DHT22;29973;43.742;1.236;2023-04-02T10:00:35;11.10;99.90
44277;DHT22;29973;43.742;1.236;2023-04-02T10:03:24;11.30;99.90
44277;DHT22;29973;43.742;1.236;2023-04-02T10:06:11;12.40;99.90
44277;DHT22;29973;43.742;1.236;2023-04-02T10:08:38;12.50;99.90
44277;DHT22;29973;43.742;1.236;2023-04-02T10:11:09;12.70;99.90
44277;DHT22;29973;43.742;1.236;2023-04-02T10:13:58;13.00;99.90
44277;DHT22;29973;43.742;1.236;2023-04-02T10:16:31;12.90;99.90
44277;DHT22;29973;43.742;1.236;2023-04-02T10:21:35;12.30;99.90
44277;DHT22;29973;43.742;1.236;2023-04-02T10:24:07;12.20;99.90
44277;DHT22;29973;43.742;1.236;2023-04-02T10:45:55;13.90;99.90
44277;DHT22;29973;43.742;1.236;2023-04-02T10:48:53;14.10;99.90
44277;DHT22;29973;43.742;1.236;2023-04-02T10:51:43;13.60;99.90
44277;DHT22;29973;43.742;1.236;2023-04-02T10:59:47;12.40;99.90
44277;DHT22;29973;43.742;1.236;2023-04-02T11:02:34;12.50;99.90
44277;DHT22;29973;43.742;1.236;2023-04-02T11:05:15;13.50;99.90
44277;DHT22;29973;43.742;1.236;2023-04-02T11:08:03;14.40;99.90
44277;DHT22;29973;43.742;1.236;2023-04-02T11:10:33;14.30;99.90
44277;DHT22;29973;43.742;1.236;2023-04-02T11:13:30;14.20;99.90
44277;DHT22;29973;43.742;1.236;2023-04-02T11:15:53;13.30;99.90
44277;DHT22;29973;43.742;1.236;2023-04-02T11:18:30;14.30;99.90
44277;DHT22;29973;43.742;1.236;2023-04-02T11:21:04;13.70;99.90
44277;DHT22;29973;43.742;1.236;2023-04-02T11:23:37;13.20;99.90
44277;DHT22;29973;43.742;1.236;2023-04-02T11:29:08;13.30;99.90
44277;DHT22;29973;43.742;1.236;2023-04-02T11:31:36;12.90;99.90
44277;DHT22;29973;43.742;1.236;2023-04-02T11:34:02;14.10;99.90
44277;DHT22;29973;43.742;1.236;2023-04-02T11:39:53;17.70;99.90
44277;DHT22;29973;43.742;1.236;2023-04-02T11:44:49;15.30;99.90
44277;DHT22;29973;43.742;1.236;2023-04-02T11:47:21;15.20;99.90
44277;DHT22;29973;43.742;1.236;2023-04-02T11:49:59;14.50;99.90
44277;DHT22;29973;43.742;1.236;2023-04-02T11:52:37;13.90;99.90
44277;DHT22;29973;43.742;1.236;2023-04-02T11:55:33;15.50;99.90
44277;DHT22;29973;43.742;1.236;2023-04-02T12:05:53;14.60;99.90
44277;DHT22;29973;43.742;1.236;2023-04-02T12:11:05;14.60;99.90
44277;DHT22;29973;43.742;1.236;2023-04-02T12:16:10;15.90;99.90
44277;DHT22;29973;43.742;1.236;2023-04-02T12:18:42;15.40;99.90
44277;DHT22;29973;43.742;1.236;2023-04-02T12:21:17;14.90;99.90
44277;DHT22;29973;43.742;1.236;2023-04-02T12:23:47;15.20;99.90
44277;DHT22;29973;43.742;1.236;2023-04-02T12:31:50;16.40;99.90
44277;DHT22;29973;43.742;1.236;2023-04-02T12:34:22;16.20;99.90
44277;DHT22;29973;43.742;1.236;2023-04-02T12:39:21;16.70;99.90
44277;DHT22;29973;43.742;1.236;2023-04-02T12:41:47;17.70;99.90
44277;DHT22;29973;43.742;1.236;2023-04-02T12:44:19;17.20;99.90
44277;DHT22;29973;43.742;1.236;2023-04-02T12:46:47;16.50;99.90
44277;DHT22;29973;43.742;1.236;2023-04-02T12:49:29;15.70;99.90
44277;DHT22;29973;43.742;1.236;2023-04-02T12:51:56;15.00;99.90
44277;DHT22;29973;43.742;1.236;2023-04-02T12:54:23;15.30;99.90
44277;DHT22;29973;43.742;1.236;2023-04-02T12:56:49;14.80;99.90
44277;DHT22;29973;43.742;1.236;2023-04-02T12:59:33;14.60;99.90
44277;DHT22;29973;43.742;1.236;2023-04-02T13:02:02;15.40;99.90
44277;DHT22;29973;43.742;1.236;2023-04-02T13:04:28;16.00;99.90
44277;DHT22;29973;43.742;1.236;2023-04-02T13:06:54;18.00;99.90
44277;DHT22;29973;43.742;1.236;2023-04-02T13:09:35;20.30;99.90
44277;DHT22;29973;43.742;1.236;2023-04-02T13:12:18;20.40;99.90
44277;DHT22;29973;43.742;1.236;2023-04-02T13:14:51;20.50;99.90
44277;DHT22;29973;43.742;1.236;2023-04-02T13:20:41;20.70;99.90
44277;DHT22;29973;43.742;1.236;2023-04-02T13:26:01;15.30;99.90
44277;DHT22;29973;43.742;1.236;2023-04-02T13:28:28;15.00;99.90
44277;DHT22;29973;43.742;1.236;2023-04-02T13:30:54;14.80;99.90
44277;DHT22;29973;43.742;1.236;2023-04-02T13:33:20;14.70;99.90
44277;DHT22;29973;43.742;1.236;2023-04-02T13:35:46;15.10;99.90
44277;DHT22;29973;43.742;1.236;2023-04-02T13:38:12;15.10;99.90
44277;DHT22;29973;43.742;1.236;2023-04-02T13:40:37;14.90;99.90
44277;DHT22;29973;43.742;1.236;2023-04-02T13:43:04;14.60;99.90
44277;DHT22;29973;43.742;1.236;2023-04-02T13:45:37;15.20;99.90
44277;DHT22;29973;43.742;1.236;2023-04-02T13:48:04;14.80;99.90
44277;DHT22;29973;43.742;1.236;2023-04-02T13:50:33;14.20;99.90
44277;DHT22;29973;43.742;1.236;2023-04-02T13:53:18;13.80;99.90
44277;DHT22;29973;43.742;1.236;2023-04-02T13:55:45;13.20;99.90
44277;DHT22;29973;43.742;1.236;2023-04-02T13:58:11;11.90;99.90
44277;DHT22;29973;43.742;1.236;2023-04-02T14:00:37;12.00;99.90
44277;DHT22;29973;43.742;1.236;2023-04-02T14:03:15;12.80;99.90
44277;DHT22;29973;43.742;1.236;2023-04-02T14:08:57;12.80;99.90
44277;DHT22;29973;43.742;1.236;2023-04-02T14:25:48;19.90;99.90
44277;DHT22;29973;43.742;1.236;2023-04-02T14:31:18;18.00;99.90
44277;DHT22;29973;43.742;1.236;2023-04-02T14:39:46;21.30;99.90
44277;DHT22;29973;43.742;1.236;2023-04-02T14:42:21;20.50;99.90
44277;DHT22;29973;43.742;1.236;2023-04-02T14:45:03;21.80;99.90
44277;DHT22;29973;43.742;1.236;2023-04-02T14:47:38;21.20;99.90
44277;DHT22;29973;43.742;1.236;2023-04-02T14:50:28;21.50;99.90
44277;DHT22;29973;43.742;1.236;2023-04-02T14:52:58;18.10;99.90
44277;DHT22;29973;43.742;1.236;2023-04-02T14:55:31;16.30;99.90
44277;DHT22;29973;43.742;1.236;2023-04-02T14:58:01;16.80;99.90
44277;DHT22;29973;43.742;1.236;2023-04-02T15:05:44;17.60;99.90
44277;DHT22;29973;43.742;1.236;2023-04-02T15:08:34;18.50;99.90
44277;DHT22;29973;43.742;1.236;2023-04-02T15:11:09;17.60;99.90
44277;DHT22;29973;43.742;1.236;2023-04-02T15:13:40;19.10;99.90
44277;DHT22;29973;43.742;1.236;2023-04-02T15:16:17;17.50;99.90
44277;DHT22;29973;43.742;1.236;2023-04-02T15:18:44;15.90;99.90
44277;DHT22;29973;43.742;1.236;2023-04-02T15:29:41;13.30;99.90
44277;DHT22;29973;43.742;1.236;2023-04-02T15:38:21;12.60;99.90
44277;DHT22;29973;43.742;1.236;2023-04-02T15:43:46;12.00;99.90
44277;DHT22;29973;43.742;1.236;2023-04-02T15:55:01;12.40;99.90
44277;DHT22;29973;43.742;1.236;2023-04-02T16:06:49;20.80;99.90
44277;DHT22;29973;43.742;1.236;2023-04-02T16:11:27;21.20;99.90
44277;DHT22;29973;43.742;1.236;2023-04-02T16:14:03;18.60;99.90
44277;DHT22;29973;43.742;1.236;2023-04-02T16:16:35;18.10;99.90
44277;DHT22;29973;43.742;1.236;2023-04-02T16:19:37;20.40;99.90
44277;DHT22;29973;43.742;1.236;2023-04-02T16:24:35;15.80;99.90
44277;DHT22;29973;43.742;1.236;2023-04-02T16:27:27;14.70;99.90
44277;DHT22;29973;43.742;1.236;2023-04-02T16:36:09;15.10;99.90
44277;DHT22;29973;43.742;1.236;2023-04-02T16:49:23;18.70;99.90
44277;DHT22;29973;43.742;1.236;2023-04-02T16:52:27;19.00;99.90
44277;DHT22;29973;43.742;1.236;2023-04-02T16:55:28;18.00;99.90
44277;DHT22;29973;43.742;1.236;2023-04-02T16:58:07;19.50;99.90
44277;DHT22;29973;43.742;1.236;2023-04-02T17:00:43;19.30;99.90
44277;DHT22;29973;43.742;1.236;2023-04-02T17:03:49;15.10;99.90
44277;DHT22;29973;43.742;1.236;2023-04-02T17:09:15;13.20;99.90
44277;DHT22;29973;43.742;1.236;2023-04-02T17:15:02;12.50;99.90
44277;DHT22;29973;43.742;1.236;2023-04-02T17:17:29;14.90;99.90
44277;DHT22;29973;43.742;1.236;2023-04-02T17:19:57;13.30;99.90
44277;DHT22;29973;43.742;1.236;2023-04-02T17:22:24;12.60;99.90
44277;DHT22;29973;43.742;1.236;2023-04-02T17:24:52;12.20;99.90
44277;DHT22;29973;43.742;1.236;2023-04-02T17:29:53;12.50;99.90
44277;DHT22;29973;43.742;1.236;2023-04-02T17:32:31;13.80;99.90
44277;DHT22;29973;43.742;1.236;2023-04-02T17:37:49;12.80;99.90
44277;DHT22;29973;43.742;1.236;2023-04-02T17:43:06;11.80;99.90
44277;DHT22;29973;43.742;1.236;2023-04-02T17:45:51;11.20;99.90
44277;DHT22;29973;43.742;1.236;2023-04-02T17:48:22;10.90;99.90
44277;DHT22;29973;43.742;1.236;2023-04-02T17:53:43;10.60;99.90
44277;DHT22;29973;43.742;1.236;2023-04-02T17:59:26;10.70;99.90
44277;DHT22;29973;43.742;1.236;2023-04-02T18:10:21;10.30;99.90
44277;DHT22;29973;43.742;1.236;2023-04-02T18:13:01;10.20;99.90
44277;DHT22;29973;43.742;1.236;2023-04-02T18:21:02;10.30;99.90
44277;DHT22;29973;43.742;1.236;2023-04-02T18:29:26;10.20;99.90
44277;DHT22;29973;43.742;1.236;2023-04-02T18:31:56;10.20;99.90
44277;DHT22;29973;43.742;1.236;2023-04-02T18:37:16;10.20;99.90
44277;DHT22;29973;43.742;1.236;2023-04-02T18:50:44;10.00;99.90
44277;DHT22;29973;43.742;1.236;2023-04-02T18:53:18;9.70;99.90
44277;DHT22;29973;43.742;1.236;2023-04-02T18:56:12;9.70;99.90
44277;DHT22;29973;43.742;1.236;2023-04-02T19:01:20;9.20;99.90
44277;DHT22;29973;43.742;1.236;2023-04-02T19:03:51;9.20;99.90
44277;DHT22;29973;43.742;1.236;2023-04-02T19:06:27;9.40;99.90
44277;DHT22;29973;43.742;1.236;2023-04-02T19:09:00;9.40;99.90
44277;DHT22;29973;43.742;1.236;2023-04-02T19:11:27;9.40;99.90
44277;DHT22;29973;43.742;1.236;2023-04-02T19:14:17;9.40;99.90
44277;DHT22;29973;43.742;1.236;2023-04-02T19:19:24;9.40;99.90
44277;DHT22;29973;43.742;1.236;2023-04-02T19:30:29;9.40;99.90
44277;DHT22;29973;43.742;1.236;2023-04-02T19:36:50;9.30;99.90
44277;DHT22;29973;43.742;1.236;2023-04-02T19:41:47;9.30;99.90
44277;DHT22;29973;43.742;1.236;2023-04-02T19:44:15;9.30;99.90
44277;DHT22;29973;43.742;1.236;2023-04-02T19:46:41;9.50;99.90
44277;DHT22;29973;43.742;1.236;2023-04-02T19:49:17;9.40;99.90
44277;DHT22;29973;43.742;1.236;2023-04-02T19:51:49;9.50;99.90
44277;DHT22;29973;43.742;1.236;2023-04-02T19:54:16;9.50;99.90
44277;DHT22;29973;43.742;1.236;2023-04-02T19:56:42;9.60;99.90
44277;DHT22;29973;43.742;1.236;2023-04-02T19:59:09;9.60;99.90
44277;DHT22;29973;43.742;1.236;2023-04-02T20:01:36;9.60;99.90
44277;DHT22;29973;43.742;1.236;2023-04-02T20:04:02;9.70;99.90
44277;DHT22;29973;43.742;1.236;2023-04-02T20:06:29;9.60;99.90
44277;DHT22;29973;43.742;1.236;2023-04-02T20:08:56;9.60;99.90
44277;DHT22;29973;43.742;1.236;2023-04-02T20:11:23;9.60;99.90
44277;DHT22;29973;43.742;1.236;2023-04-02T20:13:49;9.60;99.90
44277;DHT22;29973;43.742;1.236;2023-04-02T20:16:15;9.70;99.90
44277;DHT22;29973;43.742;1.236;2023-04-02T20:18:41;9.70;99.90
44277;DHT22;29973;43.742;1.236;2023-04-02T20:21:08;9.80;99.90
44277;DHT22;29973;43.742;1.236;2023-04-02T20:23:34;9.80;99.90
44277;DHT22;29973;43.742;1.236;2023-04-02T20:26:01;9.80;99.90
44277;DHT22;29973;43.742;1.236;2023-04-02T20:28:28;9.80;99.90
44277;DHT22;29973;43.742;1.236;2023-04-02T20:31:06;9.80;99.90
44277;DHT22;29973;43.742;1.236;2023-04-02T20:33:32;9.70;99.90
44277;DHT22;29973;43.742;1.236;2023-04-02T20:36:02;9.80;99.90
44277;DHT22;29973;43.742;1.236;2023-04-02T20:38:29;9.70;99.90
44277;DHT22;29973;43.742;1.236;2023-04-02T20:40:55;9.70;99.90
44277;DHT22;29973;43.742;1.236;2023-04-02T20:43:21;9.80;99.90
44277;DHT22;29973;43.742;1.236;2023-04-02T20:45:58;9.70;99.90
44277;DHT22;29973;43.742;1.236;2023-04-02T20:48:26;9.70;99.90
44277;DHT22;29973;43.742;1.236;2023-04-02T20:50:55;9.70;99.90
44277;DHT22;29973;43.742;1.236;2023-04-02T20:53:21;9.80;99.90
44277;DHT22;29973;43.742;1.236;2023-04-02T20:55:47;9.80;99.90
44277;DHT22;29973;43.742;1.236;2023-04-02T20:58:15;9.80;99.90
44277;DHT22;29973;43.742;1.236;2023-04-02T21:00:42;9.70;99.90
44277;DHT22;29973;43.742;1.236;2023-04-02T21:03:08;9.80;99.90
44277;DHT22;29973;43.742;1.236;2023-04-02T21:05:45;9.80;99.90
44277;DHT22;29973;43.742;1.236;2023-04-02T21:08:11;9.80;99.90
44277;DHT22;29973;43.742;1.236;2023-04-02T21:10:38;9.80;99.90
44277;DHT22;29973;43.742;1.236;2023-04-02T21:13:04;9.90;99.90
44277;DHT22;29973;43.742;1.236;2023-04-02T21:15:30;9.90;99.90
44277;DHT22;29973;43.742;1.236;2023-04-02T21:17:56;9.80;99.90
44277;DHT22;29973;43.742;1.236;2023-04-02T21:20:21;9.90;99.90
44277;DHT22;29973;43.742;1.236;2023-04-02T21:22:47;9.80;99.90
44277;DHT22;29973;43.742;1.236;2023-04-02T21:25:13;9.90;99.90
44277;DHT22;29973;43.742;1.236;2023-04-02T21:27:39;9.80;99.90
44277;DHT22;29973;43.742;1.236;2023-04-02T21:30:05;9.80;99.90
44277;DHT22;29973;43.742;1.236;2023-04-02T21:32:31;9.70;99.90